sensor_id;sensor_type;location;lat;lon;timestamp;P1;durP1;ratioP1;P2;durP2;ratioP2
34737;SDS011;39910;47.154;27.614;2024-02-26T00:01:32;11.52;;;11.02;;
34737;SDS011;39910;47.154;27.614;2024-02-26T00:03:59;11.30;;;10.80;;
34737;SDS011;39910;47.154;27.614;2024-02-26T00:06:24;11.48;;;10.98;;
34737;SDS011;39910;47.154;27.614;2024-02-26T00:08:50;11.98;;;11.38;;
34737;SDS011;39910;47.154;27.614;2024-02-26T00:11:15;11.20;;;10.70;;
34737;SDS011;39910;47.154;27.614;2024-02-26T00:13:40;11.20;;;10.70;;
34737;SDS011;39910;47.154;27.614;2024-02-26T00:16:06;11.30;;;10.80;;
34737;SDS011;39910;47.154;27.614;2024-02-26T00:18:32;11.57;;;11.07;;
34737;SDS011;39910;47.154;27.614;2024-02-26T00:20:57;11.80;;;11.30;;
34737;SDS011;39910;47.154;27.614;2024-02-26T00:23:23;11.40;;;10.90;;
34737;SDS011;39910;47.154;27.614;2024-02-26T00:25:49;11.48;;;10.98;;
34737;SDS011;39910;47.154;27.614;2024-02-26T00:28:14;11.48;;;10.98;;
34737;SDS011;39910;47.154;27.614;2024-02-26T00:30:39;11.10;;;10.60;;
34737;SDS011;39910;47.154;27.614;2024-02-26T00:33:05;11.73;;;11.23;;
34737;SDS011;39910;47.154;27.614;2024-02-26T00:35:30;11.80;;;11.30;;
34737;SDS011;39910;47.154;27.614;2024-02-26T00:37:56;11.60;;;11.10;;
34737;SDS011;39910;47.154;27.614;2024-02-26T00:40:21;11.45;;;10.95;;
34737;SDS011;39910;47.154;27.614;2024-02-26T00:42:47;11.32;;;10.82;;
34737;SDS011;39910;47.154;27.614;2024-02-26T00:45:13;11.50;;;11.00;;
34737;SDS011;39910;47.154;27.614;2024-02-26T00:47:38;11.50;;;11.00;;
34737;SDS011;39910;47.154;27.614;2024-02-26T00:50:06;11.40;;;10.90;;
34737;SDS011;39910;47.154;27.614;2024-02-26T00:52:32;11.30;;;10.80;;
34737;SDS011;39910;47.154;27.614;2024-02-26T00:54:57;11.48;;;10.98;;
34737;SDS011;39910;47.154;27.614;2024-02-26T00:57:23;11.60;;;11.10;;
34737;SDS011;39910;47.154;27.614;2024-02-26T00:59:48;12.40;;;11.80;;
34737;SDS011;39910;47.154;27.614;2024-02-26T01:02:13;11.40;;;10.90;;
34737;SDS011;39910;47.154;27.614;2024-02-26T01:04:39;11.27;;;10.77;;
34737;SDS011;39910;47.154;27.614;2024-02-26T01:07:04;12.15;;;11.55;;
34737;SDS011;39910;47.154;27.614;2024-02-26T01:09:30;11.32;;;10.82;;
34737;SDS011;39910;47.154;27.614;2024-02-26T01:11:56;11.60;;;11.10;;
34737;SDS011;39910;47.154;27.614;2024-02-26T01:14:21;11.60;;;11.10;;
34737;SDS011;39910;47.154;27.614;2024-02-26T01:16:46;11.48;;;10.98;;
34737;SDS011;39910;47.154;27.614;2024-02-26T01:19:12;11.40;;;10.90;;
34737;SDS011;39910;47.154;27.614;2024-02-26T01:21:37;11.60;;;11.10;;
34737;SDS011;39910;47.154;27.614;2024-02-26T01:24:03;12.10;;;11.50;;
34737;SDS011;39910;47.154;27.614;2024-02-26T01:26:28;11.68;;;11.18;;
34737;SDS011;39910;47.154;27.614;2024-02-26T01:28:53;11.43;;;10.93;;
34737;SDS011;39910;47.154;27.614;2024-02-26T01:31:20;11.35;;;10.85;;
34737;SDS011;39910;47.154;27.614;2024-02-26T01:33:46;11.30;;;10.80;;
34737;SDS011;39910;47.154;27.614;2024-02-26T01:36:11;11.68;;;11.18;;
34737;SDS011;39910;47.154;27.614;2024-02-26T01:38:36;11.57;;;11.07;;
34737;SDS011;39910;47.154;27.614;2024-02-26T01:41:02;11.50;;;11.00;;
34737;SDS011;39910;47.154;27.614;2024-02-26T01:43:27;11.70;;;11.20;;
34737;SDS011;39910;47.154;27.614;2024-02-26T01:45:53;11.40;;;10.90;;
34737;SDS011;39910;47.154;27.614;2024-02-26T01:48:18;11.70;;;11.20;;
34737;SDS011;39910;47.154;27.614;2024-02-26T01:50:44;11.50;;;11.00;;
34737;SDS011;39910;47.154;27.614;2024-02-26T01:53:09;11.50;;;11.00;;
34737;SDS011;39910;47.154;27.614;2024-02-26T01:55:35;11.50;;;11.00;;
34737;SDS011;39910;47.154;27.614;2024-02-26T01:58:01;11.50;;;11.00;;
34737;SDS011;39910;47.154;27.614;2024-02-26T02:00:26;11.60;;;11.10;;
34737;SDS011;39910;47.154;27.614;2024-02-26T02:02:53;11.60;;;11.10;;
34737;SDS011;39910;47.154;27.614;2024-02-26T02:05:20;11.30;;;10.80;;
34737;SDS011;39910;47.154;27.614;2024-02-26T02:07:45;11.40;;;10.90;;
34737;SDS011;39910;47.154;27.614;2024-02-26T02:10:13;11.60;;;11.10;;
34737;SDS011;39910;47.154;27.614;2024-02-26T02:12:39;11.50;;;11.00;;
34737;SDS011;39910;47.154;27.614;2024-02-26T02:15:05;11.82;;;11.27;;
34737;SDS011;39910;47.154;27.614;2024-02-26T02:17:31;11.60;;;11.10;;
34737;SDS011;39910;47.154;27.614;2024-02-26T02:19:57;11.82;;;11.27;;
34737;SDS011;39910;47.154;27.614;2024-02-26T02:22:22;11.25;;;10.75;;
34737;SDS011;39910;47.154;27.614;2024-02-26T02:24:48;11.50;;;11.00;;
34737;SDS011;39910;47.154;27.614;2024-02-26T02:27:14;11.77;;;11.27;;
34737;SDS011;39910;47.154;27.614;2024-02-26T02:29:39;11.70;;;11.20;;
34737;SDS011;39910;47.154;27.614;2024-02-26T02:32:05;11.45;;;10.95;;
34737;SDS011;39910;47.154;27.614;2024-02-26T02:34:31;11.20;;;10.70;;
34737;SDS011;39910;47.154;27.614;2024-02-26T02:36:56;11.40;;;10.90;;
34737;SDS011;39910;47.154;27.614;2024-02-26T02:39:22;12.20;;;11.60;;
34737;SDS011;39910;47.154;27.614;2024-02-26T02:41:47;11.90;;;11.30;;
34737;SDS011;39910;47.154;27.614;2024-02-26T02:44:13;11.32;;;10.82;;
34737;SDS011;39910;47.154;27.614;2024-02-26T02:46:38;11.60;;;11.10;;
34737;SDS011;39910;47.154;27.614;2024-02-26T02:49:07;11.20;;;10.70;;
34737;SDS011;39910;47.154;27.614;2024-02-26T02:51:33;11.70;;;11.20;;
34737;SDS011;39910;47.154;27.614;2024-02-26T02:53:58;11.75;;;11.25;;
34737;SDS011;39910;47.154;27.614;2024-02-26T02:56:25;11.57;;;11.07;;
34737;SDS011;39910;47.154;27.614;2024-02-26T02:58:50;11.23;;;10.73;;
34737;SDS011;39910;47.154;27.614;2024-02-26T03:01:15;11.45;;;10.95;;
34737;SDS011;39910;47.154;27.614;2024-02-26T03:03:41;11.52;;;11.02;;
34737;SDS011;39910;47.154;27.614;2024-02-26T03:06:06;11.55;;;11.05;;
34737;SDS011;39910;47.154;27.614;2024-02-26T03:08:31;11.50;;;11.00;;
34737;SDS011;39910;47.154;27.614;2024-02-26T03:10:58;11.38;;;10.88;;
34737;SDS011;39910;47.154;27.614;2024-02-26T03:13:23;11.45;;;10.95;;
34737;SDS011;39910;47.154;27.614;2024-02-26T03:15:49;11.57;;;11.07;;
34737;SDS011;39910;47.154;27.614;2024-02-26T03:18:14;11.52;;;11.02;;
34737;SDS011;39910;47.154;27.614;2024-02-26T03:20:40;11.90;;;11.30;;
34737;SDS011;39910;47.154;27.614;2024-02-26T03:23:05;11.50;;;11.00;;
34737;SDS011;39910;47.154;27.614;2024-02-26T03:25:30;11.25;;;10.75;;
34737;SDS011;39910;47.154;27.614;2024-02-26T03:27:56;11.48;;;10.98;;
34737;SDS011;39910;47.154;27.614;2024-02-26T03:30:21;11.90;;;11.30;;
34737;SDS011;39910;47.154;27.614;2024-02-26T03:32:46;11.80;;;11.25;;
34737;SDS011;39910;47.154;27.614;2024-02-26T03:35:12;11.43;;;10.93;;
34737;SDS011;39910;47.154;27.614;2024-02-26T03:37:38;11.48;;;10.98;;
34737;SDS011;39910;47.154;27.614;2024-02-26T03:40:03;11.57;;;11.07;;
34737;SDS011;39910;47.154;27.614;2024-02-26T03:42:29;11.65;;;11.15;;
34737;SDS011;39910;47.154;27.614;2024-02-26T03:44:54;11.70;;;11.20;;
34737;SDS011;39910;47.154;27.614;2024-02-26T03:47:20;11.38;;;10.88;;
34737;SDS011;39910;47.154;27.614;2024-02-26T03:49:45;11.40;;;10.90;;
34737;SDS011;39910;47.154;27.614;2024-02-26T03:52:10;11.23;;;10.73;;
34737;SDS011;39910;47.154;27.614;2024-02-26T03:54:36;11.98;;;11.40;;
34737;SDS011;39910;47.154;27.614;2024-02-26T03:57:01;11.60;;;11.10;;
34737;SDS011;39910;47.154;27.614;2024-02-26T03:59:26;11.30;;;10.80;;
34737;SDS011;39910;47.154;27.614;2024-02-26T04:01:52;11.88;;;11.27;;
34737;SDS011;39910;47.154;27.614;2024-02-26T04:04:17;11.20;;;10.70;;
34737;SDS011;39910;47.154;27.614;2024-02-26T04:06:46;11.52;;;11.02;;
34737;SDS011;39910;47.154;27.614;2024-02-26T04:09:13;11.50;;;11.00;;
34737;SDS011;39910;47.154;27.614;2024-02-26T04:11:38;11.38;;;10.88;;
34737;SDS011;39910;47.154;27.614;2024-02-26T04:14:04;11.25;;;10.75;;
34737;SDS011;39910;47.154;27.614;2024-02-26T04:16:31;11.15;;;10.65;;
34737;SDS011;39910;47.154;27.614;2024-02-26T04:18:56;11.98;;;11.38;;
34737;SDS011;39910;47.154;27.614;2024-02-26T04:21:21;11.38;;;10.88;;
34737;SDS011;39910;47.154;27.614;2024-02-26T04:23:47;11.60;;;11.10;;
34737;SDS011;39910;47.154;27.614;2024-02-26T04:26:14;11.32;;;10.82;;
34737;SDS011;39910;47.154;27.614;2024-02-26T04:28:39;11.80;;;11.27;;
34737;SDS011;39910;47.154;27.614;2024-02-26T04:31:05;12.27;;;11.68;;
34737;SDS011;39910;47.154;27.614;2024-02-26T04:33:33;12.00;;;11.40;;
34737;SDS011;39910;47.154;27.614;2024-02-26T04:35:58;11.70;;;11.20;;
34737;SDS011;39910;47.154;27.614;2024-02-26T04:38:24;11.25;;;10.75;;
34737;SDS011;39910;47.154;27.614;2024-02-26T04:40:49;11.50;;;11.00;;
34737;SDS011;39910;47.154;27.614;2024-02-26T04:43:14;11.13;;;10.63;;
34737;SDS011;39910;47.154;27.614;2024-02-26T04:45:40;11.65;;;11.13;;
34737;SDS011;39910;47.154;27.614;2024-02-26T04:48:06;12.30;;;11.70;;
34737;SDS011;39910;47.154;27.614;2024-02-26T04:50:31;11.95;;;11.35;;
34737;SDS011;39910;47.154;27.614;2024-02-26T04:52:57;12.02;;;11.43;;
34737;SDS011;39910;47.154;27.614;2024-02-26T04:55:22;11.60;;;11.10;;
34737;SDS011;39910;47.154;27.614;2024-02-26T04:57:47;11.70;;;11.20;;
34737;SDS011;39910;47.154;27.614;2024-02-26T05:00:13;11.95;;;11.35;;
34737;SDS011;39910;47.154;27.614;2024-02-26T05:02:38;12.00;;;11.40;;
34737;SDS011;39910;47.154;27.614;2024-02-26T05:05:05;11.40;;;10.90;;
34737;SDS011;39910;47.154;27.614;2024-02-26T05:07:30;11.80;;;11.30;;
34737;SDS011;39910;47.154;27.614;2024-02-26T05:09:56;11.98;;;11.38;;
34737;SDS011;39910;47.154;27.614;2024-02-26T05:12:21;11.73;;;11.15;;
34737;SDS011;39910;47.154;27.614;2024-02-26T05:14:47;11.88;;;11.30;;
34737;SDS011;39910;47.154;27.614;2024-02-26T05:17:12;11.10;;;10.60;;
34737;SDS011;39910;47.154;27.614;2024-02-26T05:19:38;11.10;;;10.60;;
34737;SDS011;39910;47.154;27.614;2024-02-26T05:22:03;11.48;;;10.98;;
34737;SDS011;39910;47.154;27.614;2024-02-26T05:24:28;11.30;;;10.80;;
34737;SDS011;39910;47.154;27.614;2024-02-26T05:26:54;11.45;;;10.95;;
34737;SDS011;39910;47.154;27.614;2024-02-26T05:29:22;12.00;;;11.40;;
34737;SDS011;39910;47.154;27.614;2024-02-26T05:31:47;11.73;;;11.15;;
34737;SDS011;39910;47.154;27.614;2024-02-26T05:34:13;12.07;;;11.48;;
34737;SDS011;39910;47.154;27.614;2024-02-26T05:36:38;12.13;;;11.52;;
34737;SDS011;39910;47.154;27.614;2024-02-26T05:39:04;12.00;;;11.40;;
34737;SDS011;39910;47.154;27.614;2024-02-26T05:41:30;11.50;;;11.00;;
34737;SDS011;39910;47.154;27.614;2024-02-26T05:43:55;11.45;;;10.95;;
34737;SDS011;39910;47.154;27.614;2024-02-26T05:46:21;12.00;;;11.40;;
34737;SDS011;39910;47.154;27.614;2024-02-26T05:48:47;11.57;;;11.07;;
34737;SDS011;39910;47.154;27.614;2024-02-26T05:51:12;11.98;;;11.40;;
34737;SDS011;39910;47.154;27.614;2024-02-26T05:53:38;12.05;;;11.48;;
34737;SDS011;39910;47.154;27.614;2024-02-26T05:56:03;12.18;;;11.57;;
34737;SDS011;39910;47.154;27.614;2024-02-26T05:58:28;12.07;;;11.50;;
34737;SDS011;39910;47.154;27.614;2024-02-26T06:00:54;12.10;;;11.52;;
34737;SDS011;39910;47.154;27.614;2024-02-26T06:03:19;12.63;;;12.02;;
34737;SDS011;39910;47.154;27.614;2024-02-26T06:05:45;11.93;;;11.40;;
34737;SDS011;39910;47.154;27.614;2024-02-26T06:08:11;12.45;;;11.85;;
34737;SDS011;39910;47.154;27.614;2024-02-26T06:10:36;12.38;;;11.77;;
34737;SDS011;39910;47.154;27.614;2024-02-26T06:13:02;12.43;;;11.82;;
34737;SDS011;39910;47.154;27.614;2024-02-26T06:15:27;12.80;;;12.20;;
34737;SDS011;39910;47.154;27.614;2024-02-26T06:17:52;12.93;;;12.32;;
34737;SDS011;39910;47.154;27.614;2024-02-26T06:20:18;12.18;;;11.68;;
34737;SDS011;39910;47.154;27.614;2024-02-26T06:22:43;12.52;;;11.93;;
34737;SDS011;39910;47.154;27.614;2024-02-26T06:25:09;12.38;;;11.77;;
34737;SDS011;39910;47.154;27.614;2024-02-26T06:27:35;12.60;;;12.00;;
34737;SDS011;39910;47.154;27.614;2024-02-26T06:30:00;12.40;;;11.80;;
34737;SDS011;39910;47.154;27.614;2024-02-26T06:32:26;12.73;;;12.13;;
34737;SDS011;39910;47.154;27.614;2024-02-26T06:34:53;12.35;;;11.80;;
34737;SDS011;39910;47.154;27.614;2024-02-26T06:37:19;12.57;;;11.98;;
34737;SDS011;39910;47.154;27.614;2024-02-26T06:39:44;13.10;;;12.50;;
34737;SDS011;39910;47.154;27.614;2024-02-26T06:42:10;12.63;;;12.02;;
34737;SDS011;39910;47.154;27.614;2024-02-26T06:44:35;12.57;;;11.98;;
34737;SDS011;39910;47.154;27.614;2024-02-26T06:47:00;12.60;;;12.00;;
34737;SDS011;39910;47.154;27.614;2024-02-26T06:49:26;12.90;;;12.30;;
34737;SDS011;39910;47.154;27.614;2024-02-26T06:51:52;13.07;;;12.48;;
34737;SDS011;39910;47.154;27.614;2024-02-26T06:54:17;13.07;;;12.48;;
34737;SDS011;39910;47.154;27.614;2024-02-26T06:56:42;13.15;;;12.55;;
34737;SDS011;39910;47.154;27.614;2024-02-26T06:59:08;13.18;;;12.57;;
34737;SDS011;39910;47.154;27.614;2024-02-26T07:01:33;13.05;;;12.45;;
34737;SDS011;39910;47.154;27.614;2024-02-26T07:03:59;13.18;;;12.57;;
34737;SDS011;39910;47.154;27.614;2024-02-26T07:06:24;13.18;;;12.57;;
34737;SDS011;39910;47.154;27.614;2024-02-26T07:08:50;13.10;;;12.50;;
34737;SDS011;39910;47.154;27.614;2024-02-26T07:11:15;13.30;;;12.70;;
34737;SDS011;39910;47.154;27.614;2024-02-26T07:13:41;13.25;;;12.65;;
34737;SDS011;39910;47.154;27.614;2024-02-26T07:16:08;12.88;;;12.27;;
34737;SDS011;39910;47.154;27.614;2024-02-26T07:18:34;13.35;;;12.75;;
34737;SDS011;39910;47.154;27.614;2024-02-26T07:21:01;13.10;;;12.50;;
34737;SDS011;39910;47.154;27.614;2024-02-26T07:23:26;13.05;;;12.45;;
34737;SDS011;39910;47.154;27.614;2024-02-26T07:25:52;13.50;;;12.90;;
34737;SDS011;39910;47.154;27.614;2024-02-26T07:28:18;13.18;;;12.57;;
34737;SDS011;39910;47.154;27.614;2024-02-26T07:30:43;13.30;;;12.70;;
34737;SDS011;39910;47.154;27.614;2024-02-26T07:33:08;12.93;;;12.32;;
34737;SDS011;39910;47.154;27.614;2024-02-26T07:35:34;12.68;;;12.07;;
34737;SDS011;39910;47.154;27.614;2024-02-26T07:38:01;13.13;;;12.52;;
34737;SDS011;39910;47.154;27.614;2024-02-26T07:40:26;13.10;;;12.50;;
34737;SDS011;39910;47.154;27.614;2024-02-26T07:42:52;13.20;;;12.60;;
34737;SDS011;39910;47.154;27.614;2024-02-26T07:45:17;13.30;;;12.70;;
34737;SDS011;39910;47.154;27.614;2024-02-26T07:47:45;12.98;;;12.38;;
34737;SDS011;39910;47.154;27.614;2024-02-26T07:50:10;12.50;;;11.90;;
34737;SDS011;39910;47.154;27.614;2024-02-26T07:52:37;12.75;;;12.15;;
34737;SDS011;39910;47.154;27.614;2024-02-26T07:55:02;12.65;;;12.05;;
34737;SDS011;39910;47.154;27.614;2024-02-26T07:57:28;12.95;;;12.35;;
34737;SDS011;39910;47.154;27.614;2024-02-26T07:59:53;12.90;;;12.30;;
34737;SDS011;39910;47.154;27.614;2024-02-26T08:02:19;12.85;;;12.25;;
34737;SDS011;39910;47.154;27.614;2024-02-26T08:04:44;12.82;;;12.23;;
34737;SDS011;39910;47.154;27.614;2024-02-26T08:07:10;12.93;;;12.32;;
34737;SDS011;39910;47.154;27.614;2024-02-26T08:09:35;12.80;;;12.20;;
34737;SDS011;39910;47.154;27.614;2024-02-26T08:12:01;12.60;;;12.00;;
34737;SDS011;39910;47.154;27.614;2024-02-26T08:14:26;12.43;;;11.82;;
34737;SDS011;39910;47.154;27.614;2024-02-26T08:16:51;12.63;;;12.02;;
34737;SDS011;39910;47.154;27.614;2024-02-26T08:19:17;12.40;;;11.80;;
34737;SDS011;39910;47.154;27.614;2024-02-26T08:21:42;12.85;;;12.25;;
34737;SDS011;39910;47.154;27.614;2024-02-26T08:24:08;12.40;;;11.80;;
34737;SDS011;39910;47.154;27.614;2024-02-26T08:26:33;12.93;;;12.32;;
34737;SDS011;39910;47.154;27.614;2024-02-26T08:28:59;12.70;;;12.10;;
34737;SDS011;39910;47.154;27.614;2024-02-26T08:31:24;12.02;;;11.52;;
34737;SDS011;39910;47.154;27.614;2024-02-26T08:33:50;13.00;;;12.40;;
34737;SDS011;39910;47.154;27.614;2024-02-26T08:36:15;12.52;;;11.93;;
34737;SDS011;39910;47.154;27.614;2024-02-26T08:38:41;12.65;;;12.05;;
34737;SDS011;39910;47.154;27.614;2024-02-26T08:41:06;12.80;;;12.20;;
34737;SDS011;39910;47.154;27.614;2024-02-26T08:43:32;13.30;;;12.70;;
34737;SDS011;39910;47.154;27.614;2024-02-26T08:45:58;13.35;;;12.75;;
34737;SDS011;39910;47.154;27.614;2024-02-26T08:48:23;13.50;;;12.90;;
34737;SDS011;39910;47.154;27.614;2024-02-26T08:50:49;13.15;;;12.55;;
34737;SDS011;39910;47.154;27.614;2024-02-26T08:53:14;13.18;;;12.57;;
34737;SDS011;39910;47.154;27.614;2024-02-26T08:55:40;13.00;;;12.40;;
34737;SDS011;39910;47.154;27.614;2024-02-26T08:58:05;13.98;;;13.30;;
34737;SDS011;39910;47.154;27.614;2024-02-26T09:00:30;13.32;;;12.73;;
34737;SDS011;39910;47.154;27.614;2024-02-26T09:02:56;13.32;;;12.73;;
34737;SDS011;39910;47.154;27.614;2024-02-26T09:05:21;13.77;;;13.18;;
34737;SDS011;39910;47.154;27.614;2024-02-26T09:07:47;13.00;;;12.40;;
34737;SDS011;39910;47.154;27.614;2024-02-26T09:10:12;13.95;;;13.25;;
34737;SDS011;39910;47.154;27.614;2024-02-26T09:12:37;13.60;;;13.00;;
34737;SDS011;39910;47.154;27.614;2024-02-26T09:15:05;13.60;;;12.98;;
34737;SDS011;39910;47.154;27.614;2024-02-26T09:17:31;13.93;;;13.23;;
34737;SDS011;39910;47.154;27.614;2024-02-26T09:19:56;13.13;;;12.52;;
34737;SDS011;39910;47.154;27.614;2024-02-26T09:22:22;13.50;;;12.90;;
34737;SDS011;39910;47.154;27.614;2024-02-26T09:24:47;12.88;;;12.27;;
34737;SDS011;39910;47.154;27.614;2024-02-26T09:27:14;13.15;;;12.55;;
34737;SDS011;39910;47.154;27.614;2024-02-26T09:29:40;13.10;;;12.50;;
34737;SDS011;39910;47.154;27.614;2024-02-26T09:32:05;13.00;;;12.40;;
34737;SDS011;39910;47.154;27.614;2024-02-26T09:34:31;13.73;;;13.05;;
34737;SDS011;39910;47.154;27.614;2024-02-26T09:36:56;12.50;;;11.90;;
34737;SDS011;39910;47.154;27.614;2024-02-26T09:39:21;12.27;;;11.68;;
34737;SDS011;39910;47.154;27.614;2024-02-26T09:41:47;13.02;;;12.43;;
34737;SDS011;39910;47.154;27.614;2024-02-26T09:44:15;12.45;;;11.85;;
34737;SDS011;39910;47.154;27.614;2024-02-26T09:46:43;12.43;;;11.82;;
34737;SDS011;39910;47.154;27.614;2024-02-26T09:49:09;12.57;;;11.98;;
34737;SDS011;39910;47.154;27.614;2024-02-26T09:51:36;12.40;;;11.80;;
34737;SDS011;39910;47.154;27.614;2024-02-26T09:54:01;12.68;;;12.07;;
34737;SDS011;39910;47.154;27.614;2024-02-26T09:56:27;12.27;;;11.70;;
34737;SDS011;39910;47.154;27.614;2024-02-26T09:58:52;12.57;;;11.98;;
34737;SDS011;39910;47.154;27.614;2024-02-26T10:01:19;12.48;;;11.88;;
34737;SDS011;39910;47.154;27.614;2024-02-26T10:03:46;12.60;;;12.00;;
34737;SDS011;39910;47.154;27.614;2024-02-26T10:06:13;12.13;;;11.60;;
34737;SDS011;39910;47.154;27.614;2024-02-26T10:08:38;11.80;;;11.30;;
34737;SDS011;39910;47.154;27.614;2024-02-26T10:11:05;12.15;;;11.60;;
34737;SDS011;39910;47.154;27.614;2024-02-26T10:13:30;12.60;;;12.00;;
34737;SDS011;39910;47.154;27.614;2024-02-26T10:15:56;13.20;;;12.60;;
34737;SDS011;39910;47.154;27.614;2024-02-26T10:18:24;12.40;;;11.80;;
34737;SDS011;39910;47.154;27.614;2024-02-26T10:20:59;12.90;;;12.30;;
34737;SDS011;39910;47.154;27.614;2024-02-26T10:23:26;12.38;;;11.77;;
34737;SDS011;39910;47.154;27.614;2024-02-26T10:25:54;12.50;;;11.90;;
34737;SDS011;39910;47.154;27.614;2024-02-26T10:28:20;12.65;;;12.05;;
34737;SDS011;39910;47.154;27.614;2024-02-26T10:30:45;13.10;;;12.50;;
34737;SDS011;39910;47.154;27.614;2024-02-26T10:33:11;12.50;;;11.90;;
34737;SDS011;39910;47.154;27.614;2024-02-26T10:35:38;13.05;;;12.45;;
34737;SDS011;39910;47.154;27.614;2024-02-26T10:38:06;13.55;;;12.95;;
34737;SDS011;39910;47.154;27.614;2024-02-26T10:40:32;13.18;;;12.57;;
34737;SDS011;39910;47.154;27.614;2024-02-26T10:42:57;13.63;;;13.02;;
34737;SDS011;39910;47.154;27.614;2024-02-26T10:45:23;13.00;;;12.40;;
34737;SDS011;39910;47.154;27.614;2024-02-26T10:47:48;12.63;;;12.02;;
34737;SDS011;39910;47.154;27.614;2024-02-26T10:50:13;13.00;;;12.40;;
34737;SDS011;39910;47.154;27.614;2024-02-26T10:52:42;12.55;;;11.95;;
34737;SDS011;39910;47.154;27.614;2024-02-26T10:55:07;12.63;;;12.02;;
34737;SDS011;39910;47.154;27.614;2024-02-26T10:57:38;12.80;;;12.20;;
34737;SDS011;39910;47.154;27.614;2024-02-26T11:00:05;13.10;;;12.50;;
34737;SDS011;39910;47.154;27.614;2024-02-26T11:02:32;13.60;;;13.00;;
34737;SDS011;39910;47.154;27.614;2024-02-26T11:04:58;13.07;;;12.48;;
34737;SDS011;39910;47.154;27.614;2024-02-26T11:07:24;12.60;;;12.00;;
34737;SDS011;39910;47.154;27.614;2024-02-26T11:09:50;12.68;;;12.07;;
34737;SDS011;39910;47.154;27.614;2024-02-26T11:12:17;12.95;;;12.35;;
34737;SDS011;39910;47.154;27.614;2024-02-26T11:14:44;13.20;;;12.60;;
34737;SDS011;39910;47.154;27.614;2024-02-26T11:17:11;13.13;;;12.52;;
34737;SDS011;39910;47.154;27.614;2024-02-26T11:19:36;13.10;;;12.50;;
34737;SDS011;39910;47.154;27.614;2024-02-26T11:22:03;13.40;;;12.80;;
34737;SDS011;39910;47.154;27.614;2024-02-26T11:24:28;13.50;;;12.90;;
34737;SDS011;39910;47.154;27.614;2024-02-26T11:26:56;13.38;;;12.77;;
34737;SDS011;39910;47.154;27.614;2024-02-26T11:29:34;13.25;;;12.65;;
34737;SDS011;39910;47.154;27.614;2024-02-26T11:32:02;13.40;;;12.80;;
34737;SDS011;39910;47.154;27.614;2024-02-26T11:34:28;13.35;;;12.75;;
34737;SDS011;39910;47.154;27.614;2024-02-26T11:36:53;12.65;;;12.05;;
34737;SDS011;39910;47.154;27.614;2024-02-26T11:39:19;12.98;;;12.38;;
34737;SDS011;39910;47.154;27.614;2024-02-26T11:41:45;13.10;;;12.50;;
34737;SDS011;39910;47.154;27.614;2024-02-26T11:44:11;12.73;;;12.13;;
34737;SDS011;39910;47.154;27.614;2024-02-26T11:51:55;12.97;;;12.37;;
34737;SDS011;39910;47.154;27.614;2024-02-26T11:57:19;12.90;;;12.30;;
34737;SDS011;39910;47.154;27.614;2024-02-26T11:59:44;13.25;;;12.65;;
34737;SDS011;39910;47.154;27.614;2024-02-26T12:02:10;13.65;;;13.05;;
34737;SDS011;39910;47.154;27.614;2024-02-26T12:04:37;13.07;;;12.48;;
34737;SDS011;39910;47.154;27.614;2024-02-26T12:07:03;12.95;;;12.35;;
34737;SDS011;39910;47.154;27.614;2024-02-26T12:09:34;13.00;;;12.40;;
34737;SDS011;39910;47.154;27.614;2024-02-26T12:12:01;12.75;;;12.15;;
34737;SDS011;39910;47.154;27.614;2024-02-26T12:14:27;12.93;;;12.32;;
34737;SDS011;39910;47.154;27.614;2024-02-26T12:16:54;12.60;;;12.00;;
34737;SDS011;39910;47.154;27.614;2024-02-26T12:19:20;12.68;;;12.07;;
34737;SDS011;39910;47.154;27.614;2024-02-26T12:21:46;12.70;;;12.10;;
34737;SDS011;39910;47.154;27.614;2024-02-26T12:24:16;12.98;;;12.38;;
34737;SDS011;39910;47.154;27.614;2024-02-26T12:26:43;12.63;;;12.02;;
34737;SDS011;39910;47.154;27.614;2024-02-26T12:29:08;13.23;;;12.63;;
34737;SDS011;39910;47.154;27.614;2024-02-26T12:31:34;12.50;;;11.90;;
34737;SDS011;39910;47.154;27.614;2024-02-26T12:34:02;12.68;;;12.07;;
34737;SDS011;39910;47.154;27.614;2024-02-26T12:36:28;12.60;;;12.00;;
34737;SDS011;39910;47.154;27.614;2024-02-26T12:38:53;13.40;;;12.80;;
34737;SDS011;39910;47.154;27.614;2024-02-26T12:41:18;12.48;;;11.88;;
34737;SDS011;39910;47.154;27.614;2024-02-26T12:43:44;12.88;;;12.27;;
34737;SDS011;39910;47.154;27.614;2024-02-26T12:46:10;13.27;;;12.68;;
34737;SDS011;39910;47.154;27.614;2024-02-26T12:48:36;12.60;;;12.00;;
34737;SDS011;39910;47.154;27.614;2024-02-26T12:51:01;13.02;;;12.43;;
34737;SDS011;39910;47.154;27.614;2024-02-26T12:53:27;13.15;;;12.55;;
34737;SDS011;39910;47.154;27.614;2024-02-26T12:55:55;13.00;;;12.40;;
34737;SDS011;39910;47.154;27.614;2024-02-26T12:58:21;13.30;;;12.70;;
34737;SDS011;39910;47.154;27.614;2024-02-26T13:00:50;12.68;;;12.07;;
34737;SDS011;39910;47.154;27.614;2024-02-26T13:03:15;13.07;;;12.48;;
34737;SDS011;39910;47.154;27.614;2024-02-26T13:05:41;12.68;;;12.07;;
34737;SDS011;39910;47.154;27.614;2024-02-26T13:08:06;12.60;;;12.00;;
34737;SDS011;39910;47.154;27.614;2024-02-26T13:10:32;13.07;;;12.48;;
34737;SDS011;39910;47.154;27.614;2024-02-26T13:13:01;12.85;;;12.25;;
34737;SDS011;39910;47.154;27.614;2024-02-26T13:15:26;12.48;;;11.88;;
34737;SDS011;39910;47.154;27.614;2024-02-26T13:17:52;12.50;;;11.90;;
34737;SDS011;39910;47.154;27.614;2024-02-26T13:20:28;12.52;;;11.93;;
34737;SDS011;39910;47.154;27.614;2024-02-26T13:23:04;13.10;;;12.50;;
34737;SDS011;39910;47.154;27.614;2024-02-26T13:25:30;12.48;;;11.88;;
34737;SDS011;39910;47.154;27.614;2024-02-26T13:28:08;12.48;;;11.88;;
34737;SDS011;39910;47.154;27.614;2024-02-26T13:30:36;12.43;;;11.82;;
34737;SDS011;39910;47.154;27.614;2024-02-26T13:33:09;13.10;;;12.50;;
34737;SDS011;39910;47.154;27.614;2024-02-26T13:35:35;12.70;;;12.10;;
34737;SDS011;39910;47.154;27.614;2024-02-26T13:38:01;12.52;;;11.93;;
34737;SDS011;39910;47.154;27.614;2024-02-26T13:40:27;12.45;;;11.85;;
34737;SDS011;39910;47.154;27.614;2024-02-26T13:42:54;12.45;;;11.85;;
34737;SDS011;39910;47.154;27.614;2024-02-26T13:45:19;13.48;;;12.88;;
34737;SDS011;39910;47.154;27.614;2024-02-26T13:47:44;13.23;;;12.63;;
34737;SDS011;39910;47.154;27.614;2024-02-26T13:50:10;12.60;;;12.00;;
34737;SDS011;39910;47.154;27.614;2024-02-26T13:52:35;12.90;;;12.30;;
34737;SDS011;39910;47.154;27.614;2024-02-26T13:55:00;13.32;;;12.73;;
34737;SDS011;39910;47.154;27.614;2024-02-26T13:57:27;12.90;;;12.30;;
34737;SDS011;39910;47.154;27.614;2024-02-26T13:59:53;12.85;;;12.25;;
34737;SDS011;39910;47.154;27.614;2024-02-26T14:02:19;12.48;;;11.88;;
34737;SDS011;39910;47.154;27.614;2024-02-26T14:04:44;12.82;;;12.23;;
34737;SDS011;39910;47.154;27.614;2024-02-26T14:07:10;12.82;;;12.23;;
34737;SDS011;39910;47.154;27.614;2024-02-26T14:09:36;13.45;;;12.85;;